createdAt,value
2022-08-14T00:03:56.327Z,100799.95
2022-08-14T00:07:46.444Z,100799.34
2022-08-14T00:11:31.334Z,100792.08
2022-08-14T00:15:16.142Z,100792.37
2022-08-14T00:19:06.410Z,100794.34
2022-08-14T00:23:12.630Z,100792.65
2022-08-14T00:27:05.613Z,100787.67
2022-08-14T00:30:55.739Z,100783.09
2022-08-14T00:34:49.219Z,100774.52
2022-08-14T00:38:16.433Z,100773.36
2022-08-14T00:42:05.531Z,100768.17
2022-08-14T00:45:43.221Z,100771.71
2022-08-14T00:49:30.403Z,100770.21
2022-08-14T00:53:06.374Z,100766.68
2022-08-14T00:56:19.369Z,100763.77
2022-08-14T00:59:54.394Z,100770.73
2022-08-14T01:03:10.526Z,100773.64
2022-08-14T01:06:51.394Z,100773.03
2022-08-14T01:10:45.022Z,100772.08
2022-08-14T01:14:38.021Z,100767.19
2022-08-14T01:18:28.282Z,100760.77
2022-08-14T01:22:26.699Z,100760.16
2022-08-14T01:25:55.956Z,100759.13
2022-08-14T01:29:51.230Z,100754.54
2022-08-14T01:32:43.916Z,100758.69
2022-08-14T01:36:22.865Z,100756.02
2022-08-14T01:40:12.630Z,100754.32
2022-08-14T01:44:06.220Z,100757.48
2022-08-14T01:48:03.642Z,100757.05
2022-08-14T01:51:52.870Z,100760.63
2022-08-14T01:55:36.847Z,100758.20
2022-08-14T01:59:26.802Z,100757.91
2022-08-14T02:02:22.877Z,100754.59
2022-08-14T02:05:52.883Z,100762.54
2022-08-14T02:09:42.264Z,100761.50
2022-08-14T02:13:21.367Z,100762.30
2022-08-14T02:17:11.493Z,100763.44
2022-08-14T02:21:00.778Z,100757.43
2022-08-14T02:24:49.888Z,100754.69
2022-08-14T02:28:58.028Z,100749.18
2022-08-14T02:32:48.962Z,100744.79
2022-08-14T02:37:03.950Z,100750.30
2022-08-14T02:40:47.291Z,100741.81
2022-08-14T02:44:39.863Z,100738.25
2022-08-14T02:49:02.063Z,100738.36
2022-08-14T02:52:56.355Z,100731.48
2022-08-14T02:57:15.562Z,100728.84
2022-08-14T03:00:57.399Z,100735.19
2022-08-14T03:04:47.121Z,100727.66
2022-08-14T03:08:36.250Z,100726.15
2022-08-14T03:12:31.402Z,100728.77
2022-08-14T03:16:19.884Z,100735.73
2022-08-14T03:20:15.763Z,100735.48
2022-08-14T03:23:45.201Z,100737.94
2022-08-14T03:26:44.291Z,100745.05
2022-08-14T03:30:39.052Z,100741.76
2022-08-14T03:34:47.755Z,100732.34
2022-08-14T03:39:14.561Z,100730.11
2022-08-14T03:42:31.052Z,100727.20
2022-08-14T03:46:38.710Z,100718.66
2022-08-14T03:50:44.621Z,100709.59
2022-08-14T03:54:39.648Z,100706.64
2022-08-14T03:58:36.477Z,100706.44
2022-08-14T04:02:37.185Z,100709.73
2022-08-14T04:06:28.322Z,100711.17
2022-08-14T04:10:31.623Z,100710.96
2022-08-14T04:14:21.382Z,100704.92
2022-08-14T04:18:12.805Z,100704.27
2022-08-14T04:22:03.544Z,100703.79
2022-08-14T04:25:53.748Z,100700.56
2022-08-14T04:29:44.943Z,100700.95
2022-08-14T04:33:34.918Z,100699.02
2022-08-14T04:37:27.504Z,100695.05
2022-08-14T04:41:17.012Z,100691.73
2022-08-14T04:45:05.954Z,100691.48
2022-08-14T04:49:00.150Z,100688.31
2022-08-14T04:52:53.937Z,100690.48
2022-08-14T04:56:45.566Z,100693.32
2022-08-14T05:00:35.383Z,100694.68
2022-08-14T05:04:27.614Z,100696.47
2022-08-14T05:08:32.251Z,100695.95
2022-08-14T05:13:13.123Z,100691.48
2022-08-14T05:16:35.720Z,100690.49
2022-08-14T05:21:05.113Z,100689.44
2022-08-14T05:24:34.349Z,100693.70
2022-08-14T05:28:24.249Z,100687.05
2022-08-14T05:32:13.693Z,100689.73
2022-08-14T05:36:04.773Z,100691.84
2022-08-14T05:39:55.001Z,100692.84
2022-08-14T05:43:45.046Z,100698.44
2022-08-14T05:47:38.944Z,100685.92
2022-08-14T05:51:31.745Z,100685.09
2022-08-14T05:55:23.279Z,100678.66
2022-08-14T05:59:13.736Z,100681.16
2022-08-14T06:03:06.931Z,100677.13
2022-08-14T06:06:56.822Z,100669.52
2022-08-14T06:10:47.313Z,100667.48
2022-08-14T06:14:36.893Z,100663.71
2022-08-14T06:18:26.360Z,100658.42
2022-08-14T06:22:24.398Z,100656.23
2022-08-14T06:26:15.425Z,100660.95
2022-08-14T06:30:06.236Z,100656.12
2022-08-14T06:35:11.156Z,100649.33
2022-08-14T06:38:16.725Z,100650.59
2022-08-14T06:42:07.037Z,100662.43
2022-08-14T06:45:57.167Z,100667.06
2022-08-14T06:49:55.991Z,100658.23
2022-08-14T06:53:48.080Z,100661.06
2022-08-14T06:57:38.218Z,100657.67
2022-08-14T07:01:27.425Z,100652.60
2022-08-14T07:05:21.130Z,100648.80
2022-08-14T07:09:23.087Z,100648.48
2022-08-14T07:13:13.099Z,100639.70
2022-08-14T07:17:03.072Z,100629.73
2022-08-14T07:20:53.350Z,100633.87
2022-08-14T07:24:43.619Z,100635.38
2022-08-14T07:28:32.887Z,100633.86
2022-08-14T07:32:22.350Z,100633.18
2022-08-14T07:36:27.564Z,100636.17
2022-08-14T07:40:22.013Z,100633.96
2022-08-14T07:44:28.911Z,100640.01
2022-08-14T07:48:25.415Z,100635.00
2022-08-14T07:52:22.234Z,100632.00
2022-08-14T07:56:44.250Z,100630.87
2022-08-14T08:00:31.430Z,100622.70
2022-08-14T08:04:24.091Z,100615.78
2022-08-14T08:08:27.415Z,100610.88
2022-08-14T08:12:21.712Z,100604.66
2022-08-14T08:16:13.358Z,100602.61
2022-08-14T08:20:06.187Z,100598.70
2022-08-14T08:23:58.673Z,100596.72
2022-08-14T08:27:57.829Z,100592.64
2022-08-14T08:31:52.208Z,100593.30
2022-08-14T08:35:50.730Z,100597.28
2022-08-14T08:40:01.799Z,100600.11
2022-08-14T08:44:17.290Z,100594.61
2022-08-14T08:48:20.852Z,100592.24
2022-08-14T08:52:29.025Z,100590.59
2022-08-14T08:56:39.549Z,100579.73
2022-08-14T09:00:30.726Z,100575.75
2022-08-14T09:04:23.196Z,100564.90
2022-08-14T09:08:31.541Z,100562.36
2022-08-14T09:12:22.063Z,100553.69
2022-08-14T09:16:18.410Z,100550.48
2022-08-14T09:20:11.370Z,100547.75
2022-08-14T09:24:28.784Z,100542.32
2022-08-14T09:28:13.186Z,100544.13
2022-08-14T09:32:04.162Z,100541.39
2022-08-14T09:36:14.118Z,100538.40
2022-08-14T09:40:11.505Z,100530.17
2022-08-14T09:44:20.813Z,100527.16
2022-08-14T09:48:27.564Z,100519.86
2022-08-14T09:52:32.806Z,100517.48
2022-08-14T09:56:30.243Z,100517.71
2022-08-14T10:00:30.106Z,100509.96
2022-08-14T10:04:37.721Z,100499.36
2022-08-14T10:08:35.396Z,100493.48
2022-08-14T10:12:34.044Z,100492.93
2022-08-14T10:16:27.311Z,100484.95
2022-08-14T10:20:40.439Z,100478.46
2022-08-14T10:24:44.592Z,100472.61
2022-08-14T10:28:51.574Z,100465.10
2022-08-14T10:32:51.354Z,100463.21
2022-08-14T10:36:44.828Z,100469.41
2022-08-14T10:40:44.785Z,100458.55
2022-08-14T10:44:45.304Z,100462.38
2022-08-14T10:48:44.930Z,100473.07
2022-08-14T10:52:37.946Z,100467.70
2022-08-14T10:56:35.319Z,100463.66
2022-08-14T11:00:35.701Z,100460.13
2022-08-14T11:04:25.929Z,100460.00
2022-08-14T11:08:16.534Z,100448.30
2022-08-14T11:12:34.550Z,100448.20
2022-08-14T11:16:15.917Z,100449.63
2022-08-14T11:20:06.373Z,100444.69
2022-08-14T11:24:50.993Z,100442.80
2022-08-14T11:28:19.633Z,100445.95
2022-08-14T11:32:28.755Z,100438.02
2022-08-14T11:36:19.174Z,100432.14
2022-08-14T11:40:08.680Z,100419.39
2022-08-14T11:43:58.891Z,100411.77
2022-08-14T11:48:11.151Z,100403.77
2022-08-14T11:51:59.022Z,100404.73
2022-08-14T11:55:50.929Z,100403.02
2022-08-14T11:59:44.519Z,100404.23
2022-08-14T12:03:46.514Z,100404.11
2022-08-14T12:07:53.373Z,100405.01
2022-08-14T12:11:47.014Z,100407.98
2022-08-14T12:15:51.393Z,100397.75
2022-08-14T12:19:41.025Z,100394.50
2022-08-14T12:23:35.631Z,100387.47
2022-08-14T12:27:25.766Z,100376.33
2022-08-14T12:31:36.334Z,100381.38
2022-08-14T12:35:34.530Z,100383.83
2022-08-14T12:39:39.878Z,100386.98
2022-08-14T12:43:35.566Z,100382.69
2022-08-14T12:47:25.735Z,100371.86
2022-08-14T12:51:27.080Z,100354.11
2022-08-14T12:55:17.615Z,100358.20
2022-08-14T12:59:10.890Z,100346.38
2022-08-14T13:03:04.202Z,100344.52
2022-08-14T13:06:53.735Z,100338.95
2022-08-14T13:10:52.018Z,100336.31
2022-08-14T13:14:48.123Z,100335.51
2022-08-14T13:18:38.668Z,100331.84
2022-08-14T13:22:33.631Z,100329.31
2022-08-14T13:26:28.382Z,100323.95
2022-08-14T13:30:21.304Z,100319.20
2022-08-14T13:34:13.839Z,100314.14
2022-08-14T13:38:04.282Z,100310.11
2022-08-14T13:41:55.995Z,100299.77
2022-08-14T13:46:00.925Z,100300.61
2022-08-14T13:49:57.455Z,100297.43
2022-08-14T13:54:06.950Z,100287.71
2022-08-14T13:58:04.606Z,100285.27
2022-08-14T14:01:55.419Z,100279.73
2022-08-14T14:05:53.207Z,100286.87
2022-08-14T14:09:52.998Z,100282.54
2022-08-14T14:13:45.251Z,100279.11
2022-08-14T14:17:35.370Z,100268.48
2022-08-14T14:21:28.496Z,100272.98
2022-08-14T14:25:19.449Z,100263.14
2022-08-14T14:29:11.413Z,100255.87
2022-08-14T14:33:05.146Z,100251.08
2022-08-14T14:37:00.762Z,100247.81
2022-08-14T14:41:00.632Z,100250.55
2022-08-14T14:44:51.699Z,100253.57
2022-08-14T14:48:54.777Z,100256.05
2022-08-14T14:52:47.009Z,100244.10
2022-08-14T14:56:51.945Z,100244.66
2022-08-14T15:00:42.951Z,100243.16
2022-08-14T15:04:43.749Z,100239.30
2022-08-14T15:08:55.911Z,100233.83
2022-08-14T15:12:56.653Z,100223.92
2022-08-14T15:16:49.155Z,100220.23
2022-08-14T15:20:40.561Z,100214.50
2022-08-14T15:24:30.723Z,100206.93
2022-08-14T15:28:22.091Z,100209.48
2022-08-14T15:32:12.807Z,100203.15
2022-08-14T15:36:02.683Z,100207.49
2022-08-14T15:39:54.245Z,100202.73
2022-08-14T15:43:43.599Z,100206.84
2022-08-14T15:47:41.501Z,100203.91
2022-08-14T15:51:32.044Z,100205.86
2022-08-14T15:55:21.667Z,100206.14
2022-08-14T15:59:13.261Z,100211.15
2022-08-14T16:03:09.631Z,100208.20
2022-08-14T16:07:01.108Z,100204.15
2022-08-14T16:10:51.521Z,100205.25
2022-08-14T16:14:45.835Z,100202.65
2022-08-14T16:22:57.618Z,100192.59
2022-08-14T16:26:51.617Z,100181.48
2022-08-14T16:30:40.798Z,100183.61
2022-08-14T16:34:47.157Z,100181.86
2022-08-14T16:38:46.299Z,100192.32
2022-08-14T16:42:39.044Z,100191.50
2022-08-14T16:46:46.892Z,100189.23
2022-08-14T16:50:43.465Z,100191.40
2022-08-14T16:54:45.033Z,100194.48
2022-08-14T16:58:35.186Z,100193.73
2022-08-14T17:02:28.321Z,100198.60
2022-08-14T17:06:30.611Z,100196.12
2022-08-14T17:10:28.034Z,100206.38
2022-08-14T17:14:22.142Z,100205.27
2022-08-14T17:18:30.954Z,100197.89
2022-08-14T17:22:26.935Z,100192.77
2022-08-14T17:26:16.968Z,100198.25
2022-08-14T17:29:57.687Z,100204.45
2022-08-14T17:33:53.167Z,100205.10
2022-08-14T17:37:45.217Z,100200.17
2022-08-14T17:41:36.214Z,100204.27
2022-08-14T17:45:06.805Z,100211.77
2022-08-14T17:49:14.168Z,100216.55
2022-08-14T17:53:09.317Z,100220.59
2022-08-14T17:56:58.971Z,100224.99
2022-08-14T18:00:39.873Z,100219.55
2022-08-14T18:04:28.626Z,100229.08
2022-08-14T18:08:33.301Z,100234.17
2022-08-14T18:11:57.481Z,100233.23
2022-08-14T18:15:14.546Z,100226.85
2022-08-14T18:18:59.284Z,100231.95
2022-08-14T18:22:52.391Z,100230.04
2022-08-14T18:26:41.508Z,100228.54
2022-08-14T18:30:33.346Z,100226.89
2022-08-14T18:34:30.190Z,100230.86
2022-08-14T18:37:55.781Z,100225.08
2022-08-14T18:41:37.203Z,100220.69
2022-08-14T18:45:31.906Z,100222.30
2022-08-14T18:49:23.643Z,100233.36
2022-08-14T18:53:16.295Z,100236.20
2022-08-14T18:57:05.661Z,100235.20
2022-08-14T19:01:10.780Z,100237.29
2022-08-14T19:04:54.770Z,100240.73
2022-08-14T19:08:59.534Z,100249.95
2022-08-14T19:12:49.471Z,100250.88
2022-08-14T19:16:48.405Z,100247.79
2022-08-14T19:20:45.470Z,100244.84
2022-08-14T19:24:50.193Z,100246.02
2022-08-14T19:28:27.430Z,100248.75
2022-08-14T19:32:26.149Z,100244.11
2022-08-14T19:36:28.915Z,100243.13
2022-08-14T19:40:31.731Z,100232.73
2022-08-14T19:44:14.330Z,100226.23
2022-08-14T19:48:15.704Z,100222.88
2022-08-14T19:52:17.489Z,100225.22
2022-08-14T19:56:29.010Z,100222.98
2022-08-14T20:00:28.716Z,100221.20
2022-08-14T20:04:45.805Z,100223.34
2022-08-14T20:11:00.094Z,100218.42
2022-08-14T20:12:57.402Z,100213.52
2022-08-14T20:16:51.474Z,100209.13
2022-08-14T20:20:41.322Z,100212.66
2022-08-14T20:24:37.607Z,100214.43
2022-08-14T20:28:35.406Z,100213.41
2022-08-14T20:32:17.393Z,100210.18
2022-08-14T20:36:16.082Z,100199.09
2022-08-14T20:39:40.193Z,100194.20
2022-08-14T20:43:35.494Z,100190.14
2022-08-14T20:47:18.111Z,100191.84
2022-08-14T20:51:11.377Z,100185.48
2022-08-14T20:55:03.213Z,100184.69
2022-08-14T20:58:52.504Z,100188.93
2022-08-14T21:02:50.465Z,100195.95
2022-08-14T21:07:23.940Z,100195.16
2022-08-14T21:10:55.040Z,100188.02
2022-08-14T21:14:51.952Z,100186.70
2022-08-14T21:18:31.688Z,100193.12
2022-08-14T21:22:11.748Z,100189.85
2022-08-14T21:25:59.756Z,100191.83
2022-08-14T21:29:56.014Z,100192.95
2022-08-14T21:33:35.698Z,100200.38
2022-08-14T21:37:26.014Z,100192.19
2022-08-14T21:41:42.828Z,100195.47
2022-08-14T21:45:29.180Z,100196.44
2022-08-14T21:49:24.679Z,100199.65
2022-08-14T21:53:03.501Z,100198.77
2022-08-14T21:56:57.748Z,100196.78
2022-08-14T21:59:52.249Z,100198.60
2022-08-14T22:03:24.400Z,100200.11
2022-08-14T22:07:12.292Z,100196.70
2022-08-14T22:10:54.416Z,100200.98
2022-08-14T22:14:44.223Z,100201.56
2022-08-14T22:18:33.579Z,100205.48
2022-08-14T22:22:11.772Z,100194.27
2022-08-14T22:25:59.600Z,100190.30
2022-08-14T22:29:54.778Z,100189.04
2022-08-14T22:33:40.255Z,100183.99
2022-08-14T22:37:31.844Z,100177.60
2022-08-14T22:41:28.349Z,100171.86
2022-08-14T22:45:20.632Z,100162.55
2022-08-14T22:49:01.099Z,100162.25
2022-08-14T22:53:06.708Z,100167.99
2022-08-14T22:56:55.869Z,100175.56
2022-08-14T23:00:33.606Z,100169.85
2022-08-14T23:04:34.996Z,100164.86
2022-08-14T23:08:59.207Z,100163.38
2022-08-14T23:12:29.960Z,100159.64
2022-08-14T23:16:19.995Z,100151.90
2022-08-14T23:20:09.557Z,100151.63
2022-08-14T23:24:07.125Z,100147.28
2022-08-14T23:28:03.095Z,100144.40
2022-08-14T23:31:55.948Z,100142.42
2022-08-14T23:35:59.158Z,100134.74
2022-08-14T23:39:49.226Z,100138.24
2022-08-14T23:43:44.855Z,100133.27
2022-08-14T23:47:27.624Z,100138.88
2022-08-14T23:51:15.556Z,100135.92
2022-08-14T23:55:05.541Z,100132.73
2022-08-14T23:59:00.437Z,100126.67
